createdAt,value
2018-05-11T00:02:12.162Z,8.60
2018-05-11T00:04:38.617Z,7.23
2018-05-11T00:07:05.840Z,7.97
2018-05-11T00:09:32.342Z,8.60
2018-05-11T00:11:58.895Z,7.53
2018-05-11T00:14:25.446Z,7.73
2018-05-11T00:16:51.931Z,7.63
2018-05-11T00:19:18.549Z,7.90
2018-05-11T00:21:44.998Z,7.67
2018-05-11T00:24:11.502Z,7.20
2018-05-11T00:26:38.867Z,7.70
2018-05-11T00:29:06.102Z,7.90
2018-05-11T00:31:33.343Z,8.10
2018-05-11T00:33:59.838Z,7.93
2018-05-11T00:36:26.299Z,9.30
2018-05-11T00:38:52.741Z,8.37
2018-05-11T00:41:19.221Z,9.23
2018-05-11T00:43:45.667Z,8.80
2018-05-11T00:46:12.146Z,8.77
2018-05-11T00:48:38.634Z,9.03
2018-05-11T00:51:05.174Z,9.53
2018-05-11T00:53:32.317Z,9.80
2018-05-11T00:55:58.848Z,8.93
2018-05-11T00:58:25.337Z,9.50
2018-05-11T01:00:51.836Z,9.73
2018-05-11T01:03:18.273Z,9.37
2018-05-11T01:05:44.761Z,9.47
2018-05-11T01:08:12.048Z,9.10
2018-05-11T01:10:38.542Z,9.50
2018-05-11T01:13:05.779Z,9.43
2018-05-11T01:15:32.968Z,10.53
2018-05-11T01:18:00.341Z,8.77
2018-05-11T01:20:26.791Z,8.97
2018-05-11T01:22:53.317Z,9.60
2018-05-11T01:25:19.887Z,9.10
2018-05-11T01:27:46.641Z,9.73
2018-05-11T01:30:14.486Z,9.57
2018-05-11T01:32:40.971Z,9.67
2018-05-11T01:35:07.620Z,10.40
2018-05-11T01:37:34.106Z,9.27
2018-05-11T01:40:00.609Z,9.57
2018-05-11T01:42:27.073Z,10.60
2018-05-11T01:44:53.570Z,8.60
2018-05-11T01:47:20.021Z,9.70
2018-05-11T01:49:46.529Z,10.17
2018-05-11T01:52:13.002Z,9.93
2018-05-11T01:54:39.488Z,10.97
2018-05-11T01:57:05.922Z,11.07
2018-05-11T01:59:32.496Z,11.10
2018-05-11T02:01:58.947Z,10.80
2018-05-11T02:04:26.122Z,10.90
2018-05-11T02:06:52.635Z,11.90
2018-05-11T02:09:20.062Z,12.00
2018-05-11T02:11:46.530Z,10.83
2018-05-11T02:14:13.757Z,10.80
2018-05-11T02:16:40.326Z,11.70
2018-05-11T02:19:07.580Z,11.90
2018-05-11T02:21:34.084Z,12.77
2018-05-11T02:24:00.580Z,13.80
2018-05-11T02:26:27.058Z,14.10
2018-05-11T02:28:53.667Z,14.00
2018-05-11T02:31:20.159Z,14.97
2018-05-11T02:33:46.717Z,12.57
2018-05-11T02:36:13.186Z,12.50
2018-05-11T02:38:39.669Z,13.20
2018-05-11T02:41:06.108Z,12.63
2018-05-11T02:43:32.690Z,12.17
2018-05-11T02:45:59.146Z,12.33
2018-05-11T02:48:26.392Z,12.57
2018-05-11T02:50:52.934Z,11.00
2018-05-11T02:53:20.169Z,11.00
2018-05-11T02:55:46.639Z,12.27
2018-05-11T02:58:13.152Z,11.57
2018-05-11T03:00:40.418Z,12.20
2018-05-11T03:03:07.770Z,9.87
2018-05-11T03:05:34.971Z,11.70
2018-05-11T03:08:01.437Z,10.53
2018-05-11T03:10:28.767Z,9.77
2018-05-11T03:12:55.333Z,10.03
2018-05-11T03:15:22.604Z,10.30
2018-05-11T03:17:49.140Z,10.00
2018-05-11T03:20:15.574Z,9.90
2018-05-11T03:22:42.028Z,9.47
2018-05-11T03:25:08.562Z,11.53
2018-05-11T03:27:35.018Z,9.83
2018-05-11T03:30:01.506Z,10.80
2018-05-11T03:32:28.725Z,9.90
2018-05-11T03:34:55.216Z,10.30
2018-05-11T03:37:21.713Z,10.50
2018-05-11T03:39:48.941Z,10.80
2018-05-11T03:42:15.409Z,10.83
2018-05-11T03:44:41.914Z,11.27
2018-05-11T03:47:08.422Z,11.10
2018-05-11T03:49:35.085Z,10.23
2018-05-11T03:52:01.570Z,9.80
2018-05-11T03:54:28.189Z,10.07
2018-05-11T03:56:54.687Z,10.33
2018-05-11T03:59:21.205Z,10.73
2018-05-11T04:01:59.997Z,12.30
2018-05-11T04:04:38.736Z,11.80
2018-05-11T04:07:17.441Z,10.90
2018-05-11T04:09:43.921Z,9.60
2018-05-11T04:12:10.554Z,10.00
2018-05-11T04:14:37.057Z,9.70
2018-05-11T04:17:03.484Z,10.50
2018-05-11T04:19:31.645Z,9.50
2018-05-11T04:21:58.128Z,10.10
2018-05-11T04:24:24.701Z,10.00
2018-05-11T04:26:52.020Z,9.70
2018-05-11T04:29:18.488Z,9.90
2018-05-11T04:31:45.738Z,10.30
2018-05-11T04:34:12.920Z,9.20
2018-05-11T04:36:39.381Z,10.60
2018-05-11T04:39:05.910Z,10.27
2018-05-11T04:41:32.446Z,11.30
2018-05-11T04:43:58.888Z,10.47
2018-05-11T04:46:25.418Z,11.07
2018-05-11T04:48:51.920Z,11.60
2018-05-11T04:51:18.651Z,11.27
2018-05-11T04:53:45.107Z,11.10
2018-05-11T04:56:11.611Z,11.37
2018-05-11T04:58:38.085Z,9.93
2018-05-11T05:01:04.537Z,10.43
2018-05-11T05:03:30.991Z,10.97
2018-05-11T05:05:58.187Z,11.10
2018-05-11T05:08:24.666Z,10.20
2018-05-11T05:10:51.974Z,10.13
2018-05-11T05:13:18.521Z,10.20
2018-05-11T05:15:45.011Z,10.13
2018-05-11T05:18:12.239Z,10.23
2018-05-11T05:20:38.746Z,10.73
2018-05-11T05:23:05.209Z,11.00
2018-05-11T05:25:31.693Z,10.10
2018-05-11T05:27:58.190Z,9.97
2018-05-11T05:30:24.638Z,8.97
2018-05-11T05:32:51.244Z,9.03
2018-05-11T05:35:17.764Z,9.50
2018-05-11T05:37:44.330Z,10.00
2018-05-11T05:40:11.574Z,9.23
2018-05-11T05:42:38.894Z,11.50
2018-05-11T05:45:05.370Z,10.63
2018-05-11T05:47:32.573Z,9.27
2018-05-11T05:49:59.130Z,8.50
2018-05-11T05:52:25.589Z,8.50
2018-05-11T05:54:52.819Z,8.73
2018-05-11T05:57:19.433Z,10.27
2018-05-11T05:59:45.880Z,9.20
2018-05-11T06:02:12.402Z,9.53
2018-05-11T06:04:38.857Z,9.40
2018-05-11T06:07:05.447Z,8.80
2018-05-11T06:09:31.918Z,8.10
2018-05-11T06:11:58.571Z,7.63
2018-05-11T06:14:25.019Z,7.93
2018-05-11T06:16:52.232Z,7.87
2018-05-11T06:19:18.842Z,8.10
2018-05-11T06:21:45.298Z,8.03
2018-05-11T06:24:11.898Z,7.40
2018-05-11T06:26:38.343Z,8.53
2018-05-11T06:29:04.873Z,9.43
2018-05-11T06:31:31.326Z,8.80
2018-05-11T06:33:57.789Z,8.80
2018-05-11T06:36:24.241Z,8.53
2018-05-11T06:38:50.694Z,8.67
2018-05-11T06:41:17.879Z,9.27
2018-05-11T06:43:44.346Z,14.60
2018-05-11T06:46:10.877Z,17.07
2018-05-11T06:48:37.374Z,15.63
2018-05-11T06:51:03.871Z,16.00
2018-05-11T06:53:31.149Z,15.60
2018-05-11T06:55:57.594Z,21.80
2018-05-11T06:58:24.126Z,22.20
2018-05-11T07:00:50.765Z,19.67
2018-05-11T07:03:17.236Z,20.03
2018-05-11T07:05:43.854Z,19.67
2018-05-11T07:08:10.354Z,20.07
2018-05-11T07:10:36.880Z,20.23
2018-05-11T07:13:04.245Z,20.27
2018-05-11T07:15:30.717Z,19.80
2018-05-11T07:17:57.328Z,21.80
2018-05-11T07:20:23.773Z,22.57
2018-05-11T07:22:50.217Z,21.13
2018-05-11T07:25:16.811Z,22.60
2018-05-11T07:27:43.440Z,20.90
2018-05-11T07:30:10.697Z,21.20
2018-05-11T07:32:37.157Z,21.40
2018-05-11T07:35:03.808Z,18.03
2018-05-11T07:37:30.340Z,21.03
2018-05-11T07:39:56.908Z,22.63
2018-05-11T07:42:23.721Z,23.20
2018-05-11T07:44:50.199Z,24.40
2018-05-11T07:47:18.780Z,22.47
2018-05-11T07:49:46.016Z,21.43
2018-05-11T07:52:12.469Z,21.53
2018-05-11T07:54:39.692Z,24.60
2018-05-11T07:57:06.294Z,24.80
2018-05-11T07:59:32.886Z,22.77
2018-05-11T08:01:59.826Z,23.20
2018-05-11T08:04:26.321Z,23.47
2018-05-11T08:06:53.003Z,22.23
2018-05-11T08:09:20.266Z,24.27
2018-05-11T08:11:47.514Z,18.30
2018-05-11T08:14:14.777Z,21.07
2018-05-11T08:16:42.141Z,20.60
2018-05-11T08:19:25.190Z,17.90
2018-05-11T08:21:52.262Z,22.73
2018-05-11T08:24:18.775Z,21.83
2018-05-11T08:26:45.261Z,21.50
2018-05-11T08:29:11.935Z,23.07
2018-05-11T08:31:38.370Z,22.40
2018-05-11T08:34:04.919Z,23.30
2018-05-11T08:36:31.382Z,22.13
2018-05-11T08:38:58.025Z,22.97
2018-05-11T08:41:24.448Z,23.87
2018-05-11T08:43:50.954Z,22.80
2018-05-11T08:46:17.471Z,24.07
2018-05-11T08:48:44.601Z,23.90
2018-05-11T08:51:11.818Z,22.33
2018-05-11T08:53:38.426Z,20.90
2018-05-11T08:56:05.189Z,21.13
2018-05-11T08:58:31.713Z,21.30
2018-05-11T09:00:58.327Z,21.10
2018-05-11T09:03:24.878Z,22.67
2018-05-11T09:06:04.792Z,22.07
2018-05-11T09:08:51.617Z,14.43
2018-05-11T09:11:19.582Z,20.93
2018-05-11T09:13:46.433Z,22.80
2018-05-11T09:16:13.134Z,23.83
2018-05-11T09:18:39.623Z,21.90
2018-05-11T09:21:06.218Z,23.63
2018-05-11T09:23:33.579Z,21.73
2018-05-11T09:26:00.145Z,20.40
2018-05-11T09:28:26.861Z,21.57
2018-05-11T09:30:53.485Z,24.07
2018-05-11T09:33:20.770Z,22.90
2018-05-11T09:38:46.920Z,22.90
2018-05-11T09:41:14.485Z,19.80
2018-05-11T09:43:41.026Z,20.97
2018-05-11T09:46:07.617Z,22.30
2018-05-11T09:48:34.846Z,19.60
2018-05-11T09:51:01.437Z,23.90
2018-05-11T09:53:27.910Z,21.53
2018-05-11T09:55:54.529Z,21.43
2018-05-11T09:58:21.029Z,21.70
2018-05-11T10:00:47.629Z,18.47
2018-05-11T10:03:14.153Z,23.17
2018-05-11T10:05:41.496Z,22.33
2018-05-11T10:08:08.205Z,22.30
2018-05-11T10:10:34.678Z,21.43
2018-05-11T10:13:01.202Z,21.77
2018-05-11T10:15:27.641Z,21.97
2018-05-11T10:17:54.138Z,21.37
2018-05-11T10:20:20.598Z,20.43
2018-05-11T10:22:47.164Z,18.87
2018-05-11T10:25:13.666Z,20.87
2018-05-11T10:27:40.519Z,21.20
2018-05-11T10:30:07.061Z,21.43
2018-05-11T10:32:33.563Z,22.10
2018-05-11T10:35:00.127Z,20.90
2018-05-11T10:37:26.603Z,20.73
2018-05-11T10:39:53.908Z,20.83
2018-05-11T10:42:20.468Z,20.60
2018-05-11T10:44:46.970Z,21.43
2018-05-11T10:47:13.426Z,20.77
2018-05-11T10:49:44.067Z,21.50
2018-05-11T10:52:10.992Z,21.67
2018-05-11T10:54:37.499Z,19.40
2018-05-11T10:57:03.957Z,20.73
2018-05-11T10:59:30.950Z,21.53
2018-05-11T11:01:57.475Z,20.80
2018-05-11T11:04:24.682Z,21.43
2018-05-11T11:06:51.214Z,20.03
2018-05-11T11:09:17.666Z,21.70
2018-05-11T11:11:44.923Z,22.80
2018-05-11T11:14:12.158Z,21.40
2018-05-11T11:16:38.661Z,20.33
2018-05-11T11:19:05.118Z,20.30
2018-05-11T11:21:31.684Z,20.30
2018-05-11T11:26:53.933Z,20.63
2018-05-11T11:29:20.403Z,20.13
2018-05-11T11:31:46.902Z,19.90
2018-05-11T11:34:14.320Z,22.20
2018-05-11T11:36:40.798Z,19.17
2018-05-11T11:39:07.295Z,19.90
2018-05-11T11:41:33.795Z,19.70
2018-05-11T11:44:00.289Z,18.53
2018-05-11T11:46:26.740Z,18.47
2018-05-11T11:48:53.210Z,17.80
2018-05-11T11:51:19.678Z,19.60
2018-05-11T11:53:46.137Z,19.67
2018-05-11T11:56:12.599Z,17.57
2018-05-11T11:58:39.109Z,19.27
2018-05-11T12:01:06.301Z,18.97
2018-05-11T12:03:32.856Z,17.23
2018-05-11T12:05:59.331Z,21.33
2018-05-11T12:08:26.579Z,18.07
2018-05-11T12:10:53.830Z,17.00
2018-05-11T12:13:20.311Z,19.43
2018-05-11T12:15:47.172Z,19.30
2018-05-11T12:18:13.641Z,19.13
2018-05-11T12:20:40.158Z,19.13
2018-05-11T12:23:06.670Z,20.10
2018-05-11T12:25:33.223Z,20.10
2018-05-11T12:27:59.730Z,20.27
2018-05-11T12:30:26.215Z,18.47
2018-05-11T12:32:53.447Z,22.23
2018-05-11T12:35:20.149Z,22.60
2018-05-11T12:37:46.650Z,22.00
2018-05-11T12:40:13.853Z,20.47
2018-05-11T12:42:40.382Z,20.77
2018-05-11T12:45:06.937Z,19.70
2018-05-11T12:47:33.550Z,18.03
2018-05-11T12:50:00.571Z,19.40
2018-05-11T12:52:27.021Z,18.63
2018-05-11T12:54:53.516Z,20.43
2018-05-11T12:57:20.784Z,20.23
2018-05-11T12:59:48.035Z,20.57
2018-05-11T13:02:15.297Z,19.00
2018-05-11T13:04:41.992Z,20.43
2018-05-11T13:07:08.491Z,20.20
2018-05-11T13:09:35.056Z,19.80
2018-05-11T13:12:01.499Z,19.30
2018-05-11T13:14:28.136Z,21.07
2018-05-11T13:16:54.705Z,20.30
2018-05-11T13:19:21.942Z,19.07
2018-05-11T13:21:49.386Z,19.97
2018-05-11T13:24:15.862Z,21.10
2018-05-11T13:26:42.396Z,20.17
2018-05-11T13:29:08.901Z,18.50
2018-05-11T13:31:36.274Z,19.03
2018-05-11T13:34:02.806Z,19.97
2018-05-11T13:36:30.117Z,19.33
2018-05-11T13:38:56.581Z,18.33
2018-05-11T13:41:23.813Z,18.30
2018-05-11T13:43:50.418Z,19.30
2018-05-11T13:46:16.938Z,19.60
2018-05-11T13:48:43.541Z,18.60
2018-05-11T13:51:10.774Z,18.03
2018-05-11T13:53:37.258Z,17.80
2018-05-11T13:56:03.797Z,20.50
2018-05-11T13:58:30.231Z,20.97
2018-05-11T14:00:56.792Z,19.57
2018-05-11T14:03:23.296Z,20.70
2018-05-11T14:05:49.856Z,18.80
2018-05-11T14:08:16.578Z,19.60
2018-05-11T14:10:43.054Z,18.03
2018-05-11T14:13:09.561Z,18.97
2018-05-11T14:15:36.076Z,21.13
2018-05-11T14:18:02.565Z,22.70
2018-05-11T14:20:29.080Z,22.50
2018-05-11T14:22:55.666Z,22.30
2018-05-11T14:25:22.127Z,17.00
2018-05-11T14:27:48.726Z,19.83
2018-05-11T14:30:16.014Z,20.27
2018-05-11T14:32:42.529Z,21.03
2018-05-11T14:35:09.121Z,21.50
2018-05-11T14:37:35.645Z,20.80
2018-05-11T14:40:02.284Z,21.20
2018-05-11T14:42:28.763Z,20.33
2018-05-11T14:44:56.041Z,23.80
2018-05-11T14:47:22.548Z,21.77
2018-05-11T14:49:49.866Z,23.60
2018-05-11T14:52:16.365Z,23.90
2018-05-11T14:54:42.855Z,19.70
2018-05-11T14:57:10.314Z,20.63
2018-05-11T14:59:37.662Z,21.90
2018-05-11T15:02:04.154Z,22.37
2018-05-11T15:04:30.913Z,21.33
2018-05-11T15:06:57.400Z,22.00
2018-05-11T15:09:23.956Z,20.67
2018-05-11T15:11:50.497Z,18.80
2018-05-11T15:14:17.083Z,19.77
2018-05-11T15:16:44.012Z,17.80
2018-05-11T15:19:10.566Z,18.47
2018-05-11T15:21:37.782Z,19.50
2018-05-11T15:24:05.039Z,22.20
2018-05-11T15:26:31.736Z,22.10
2018-05-11T15:28:58.204Z,22.10
2018-05-11T15:31:24.774Z,20.40
2018-05-11T15:33:52.065Z,20.60
2018-05-11T15:36:20.922Z,19.93
2018-05-11T15:38:48.287Z,19.27
2018-05-11T15:41:15.564Z,19.93
2018-05-11T15:43:42.083Z,20.60
2018-05-11T15:46:08.635Z,19.10
2018-05-11T15:48:35.154Z,19.10
2018-05-11T15:51:01.724Z,19.60
2018-05-11T15:53:28.290Z,20.83
2018-05-11T15:55:54.873Z,20.17
2018-05-11T15:58:22.189Z,21.60
2018-05-11T16:00:48.835Z,19.17
2018-05-11T16:03:16.062Z,19.23
2018-05-11T16:05:43.333Z,21.10
2018-05-11T16:08:09.858Z,21.50
2018-05-11T16:10:36.368Z,22.57
2018-05-11T16:13:02.826Z,20.97
2018-05-11T16:15:30.269Z,21.27
2018-05-11T16:17:56.800Z,21.60
2018-05-11T16:20:23.488Z,20.83
2018-05-11T16:22:50.821Z,20.73
2018-05-11T16:25:18.175Z,20.77
2018-05-11T16:27:45.468Z,20.20
2018-05-11T16:30:12.017Z,21.43
2018-05-11T16:32:42.224Z,20.77
2018-05-11T16:35:08.983Z,19.90
2018-05-11T16:37:35.872Z,23.40
2018-05-11T16:40:02.753Z,24.07
2018-05-11T16:42:29.381Z,24.40
2018-05-11T16:44:56.046Z,23.20
2018-05-11T16:47:22.543Z,24.50
2018-05-11T16:49:49.290Z,22.90
2018-05-11T16:52:16.704Z,23.40
2018-05-11T16:54:43.994Z,25.53
2018-05-11T16:57:10.477Z,25.77
2018-05-11T16:59:37.008Z,24.17
2018-05-11T17:02:03.566Z,23.37
2018-05-11T17:04:30.066Z,23.13
2018-05-11T17:06:56.907Z,24.40
2018-05-11T17:09:24.024Z,21.77
2018-05-11T17:11:51.340Z,23.83
2018-05-11T17:14:17.945Z,24.80
2018-05-11T17:16:44.566Z,23.53
2018-05-11T17:19:12.740Z,25.03
2018-05-11T17:21:40.346Z,24.33
2018-05-11T17:24:06.869Z,24.90
2018-05-11T17:26:33.417Z,24.03
2018-05-11T17:29:00.517Z,25.30
2018-05-11T17:31:27.023Z,23.73
2018-05-11T17:33:54.309Z,24.17
2018-05-11T17:36:21.263Z,24.83
2018-05-11T17:38:48.000Z,25.30
2018-05-11T17:41:14.665Z,25.10
2018-05-11T17:43:42.013Z,23.43
2018-05-11T17:46:08.698Z,25.20
2018-05-11T17:48:35.973Z,25.10
2018-05-11T17:51:02.528Z,26.23
2018-05-11T17:53:29.097Z,23.23
2018-05-11T17:55:55.686Z,24.07
2018-05-11T17:58:22.212Z,24.33
2018-05-11T18:00:48.719Z,26.20
2018-05-11T18:03:15.200Z,24.43
2018-05-11T18:05:41.706Z,25.87
2018-05-11T18:08:08.218Z,25.20
2018-05-11T18:10:34.895Z,23.10
2018-05-11T18:13:01.452Z,25.20
2018-05-11T18:15:28.081Z,25.30
2018-05-11T18:17:59.094Z,27.40
2018-05-11T18:20:25.551Z,25.00
2018-05-11T18:22:52.447Z,24.10
2018-05-11T18:25:19.748Z,26.27
2018-05-11T18:27:46.274Z,23.87
2018-05-11T18:30:13.092Z,25.43
2018-05-11T18:32:40.310Z,25.50
2018-05-11T18:35:06.899Z,24.53
2018-05-11T18:37:33.375Z,26.67
2018-05-11T18:39:59.950Z,25.40
2018-05-11T18:42:27.232Z,25.43
2018-05-11T18:44:53.791Z,25.90
2018-05-11T18:47:20.679Z,26.40
2018-05-11T18:49:47.964Z,26.00
2018-05-11T18:52:14.500Z,25.97
2018-05-11T18:54:41.327Z,26.33
2018-05-11T18:57:07.633Z,26.10
2018-05-11T18:59:35.143Z,28.30
2018-05-11T19:02:01.647Z,27.50
2018-05-11T19:04:28.643Z,27.10
2018-05-11T19:06:55.175Z,27.23
2018-05-11T19:09:21.702Z,25.60
2018-05-11T19:11:48.676Z,28.03
2018-05-11T19:14:15.205Z,26.40
2018-05-11T19:16:41.883Z,26.67
2018-05-11T19:19:08.369Z,26.33
2018-05-11T19:21:34.963Z,25.50
2018-05-11T19:24:02.507Z,28.87
2018-05-11T19:26:29.263Z,27.03
2018-05-11T19:28:55.768Z,26.50
2018-05-11T19:31:23.006Z,27.33
2018-05-11T19:33:50.458Z,27.00
2018-05-11T19:36:17.590Z,27.30
2018-05-11T19:38:44.153Z,28.27
2018-05-11T19:41:11.411Z,27.77
2018-05-11T19:43:38.049Z,28.00
2018-05-11T19:46:05.306Z,27.23
2018-05-11T19:48:32.580Z,28.17
2018-05-11T19:50:59.183Z,28.50
2018-05-11T19:53:25.682Z,27.90
2018-05-11T19:55:52.270Z,29.10
2018-05-11T19:58:18.780Z,28.97
2018-05-11T20:00:45.264Z,28.67
2018-05-11T20:03:11.858Z,29.40
2018-05-11T20:05:38.320Z,27.93
2018-05-11T20:08:04.922Z,30.40
2018-05-11T20:10:31.477Z,29.07
2018-05-11T20:12:58.705Z,30.87
2018-05-11T20:15:25.255Z,29.97
2018-05-11T20:17:52.468Z,28.00
2018-05-11T20:20:19.000Z,27.67
2018-05-11T20:22:45.496Z,30.53
2018-05-11T20:25:11.981Z,28.20
2018-05-11T20:27:38.560Z,30.80
2018-05-11T20:30:05.825Z,29.70
2018-05-11T20:32:32.445Z,31.20
2018-05-11T20:34:58.868Z,30.93
2018-05-11T20:37:26.271Z,29.27
2018-05-11T20:39:52.773Z,30.87
2018-05-11T20:42:20.035Z,30.47
2018-05-11T20:44:46.869Z,30.07
2018-05-11T20:47:13.366Z,31.30
2018-05-11T20:49:40.503Z,32.10
2018-05-11T20:52:07.073Z,31.27
2018-05-11T20:54:34.429Z,31.90
2018-05-11T20:57:01.799Z,31.10
2018-05-11T20:59:28.346Z,32.67
2018-05-11T21:01:54.920Z,34.93
2018-05-11T21:04:21.554Z,33.57
2018-05-11T21:06:48.282Z,34.30
2018-05-11T21:09:17.215Z,31.10
2018-05-11T21:11:43.714Z,31.97
2018-05-11T21:14:10.393Z,33.03
2018-05-11T21:16:37.614Z,31.97
2018-05-11T21:19:04.123Z,31.77
2018-05-11T21:21:30.673Z,31.10
2018-05-11T21:23:58.129Z,31.23
2018-05-11T21:26:24.708Z,31.60
2018-05-11T21:28:51.327Z,31.77
2018-05-11T21:31:19.681Z,30.57
2018-05-11T21:33:46.197Z,31.50
2018-05-11T21:36:12.713Z,29.20
2018-05-11T21:38:39.207Z,30.30
2018-05-11T21:41:05.808Z,31.07
2018-05-11T21:43:34.063Z,30.87
2018-05-11T21:46:00.671Z,31.30
2018-05-11T21:48:27.998Z,31.20
2018-05-11T21:50:54.523Z,29.53
2018-05-11T21:53:21.216Z,31.43
2018-05-11T21:55:48.434Z,31.87
2018-05-11T21:58:14.956Z,29.40
2018-05-11T22:00:41.552Z,28.50
2018-05-11T22:03:08.049Z,29.57
2018-05-11T22:05:34.569Z,31.33
2018-05-11T22:08:01.090Z,32.80
2018-05-11T22:10:27.863Z,31.30
2018-05-11T22:12:54.371Z,29.60
2018-05-11T22:15:20.862Z,29.90
2018-05-11T22:17:47.493Z,31.47
2018-05-11T22:20:14.835Z,32.10
2018-05-11T22:22:42.061Z,34.27
2018-05-11T22:25:08.573Z,34.67
2018-05-11T22:27:35.098Z,34.20
2018-05-11T22:30:01.581Z,33.60
2018-05-11T22:32:28.910Z,33.73
2018-05-11T22:34:55.476Z,35.50
2018-05-11T22:37:22.007Z,34.13
2018-05-11T22:39:49.239Z,33.90
2018-05-11T22:42:15.857Z,34.30
2018-05-11T22:44:42.511Z,32.07
2018-05-11T22:47:09.004Z,32.87
2018-05-11T22:49:35.642Z,31.97
2018-05-11T22:52:02.947Z,32.13
2018-05-11T22:54:30.283Z,34.50
2018-05-11T22:56:56.904Z,33.07
2018-05-11T22:59:23.423Z,34.67
2018-05-11T23:01:50.002Z,32.43
2018-05-11T23:04:16.518Z,30.87
2018-05-11T23:06:43.045Z,31.93
2018-05-11T23:09:09.729Z,30.70
2018-05-11T23:11:36.189Z,30.40
2018-05-11T23:14:02.744Z,32.73
2018-05-11T23:16:29.234Z,34.90
2018-05-11T23:18:56.465Z,31.20
2018-05-11T23:21:23.203Z,31.67
2018-05-11T23:23:49.738Z,31.47
2018-05-11T23:26:16.345Z,32.50
2018-05-11T23:28:42.858Z,33.10
2018-05-11T23:31:09.359Z,31.83
2018-05-11T23:33:36.877Z,32.57
2018-05-11T23:36:03.359Z,29.90
2018-05-11T23:38:30.623Z,31.63
2018-05-11T23:40:57.864Z,30.13
2018-05-11T23:43:25.179Z,30.10
2018-05-11T23:45:51.699Z,31.27
2018-05-11T23:48:18.154Z,31.60
2018-05-11T23:50:44.674Z,33.10
2018-05-11T23:53:11.191Z,33.70
2018-05-11T23:55:37.690Z,32.97
2018-05-11T23:58:04.122Z,29.37
